»·PEaware :: WAT306 KMFR-KOLM

WAT306 :: KMFR-KOLM

FLIGHT INFORMATION

Flight Status: Arrived
Operator:
Walker Air Transport
More flights by this operator :: More flights under this callsign
Pilot: Ethan S. (29221)
Aircraft: SOCATA TBM-900
(TBM9)
More flights by this aircraft type
Origin: KMFR Rogue Valley Intl-Medford
United States
Destination: KOLM Olympia
United States
More flights between these airports :: More routes between these airports
Route: +GNATS7 KOLER UBG OLM
File this flight plan on PilotEdge
Remarks:
Altitude:
(Current/Filed)
26,000ft
Speed:
(Current/Filed)
315kts
Departed: 21-Nov-20 03:23 PM
Arrived: 21-Nov-20 04:37 PM
Distance/Time
Traveled:
276nm/1:14
Distance/Time
To Go:
Arrived

Flight Plot

Page will automatically refresh every two minutes.

Flight plan parsing failed; only flown route is shown


Map Options




Map Legend


Flown Route
Filed Route
Departure Airport
Arrival Airport
Navaid (VOR, NDB)
Fix

Horizontal Profiles

Position Reports

Time Latitude Longitude Heading Altitude Ground
Speed
21-Nov-20 15:00 42.371632 -122.877411 113 1309ft 0kts
21-Nov-20 15:01 42.371632 -122.877411 113 1309ft 0kts
21-Nov-20 15:02 42.371632 -122.877411 113 1309ft 0kts
21-Nov-20 15:03 42.371632 -122.877411 113 1309ft 0kts
21-Nov-20 15:04 42.371632 -122.877411 113 1309ft 0kts
21-Nov-20 15:05 42.371632 -122.877411 113 1309ft 0kts
21-Nov-20 15:06 42.371632 -122.877411 113 1309ft 0kts
21-Nov-20 15:07 42.371632 -122.877411 113 1309ft 0kts
21-Nov-20 15:08 42.371632 -122.877411 113 1309ft 0kts
21-Nov-20 15:09 42.371632 -122.877411 113 1309ft 0kts
21-Nov-20 15:10 42.371632 -122.877411 113 1309ft 0kts
21-Nov-20 15:11 42.371632 -122.877411 113 1309ft 0kts
21-Nov-20 15:12 42.371632 -122.877411 113 1309ft 0kts
21-Nov-20 15:13 42.371632 -122.877411 113 1309ft 0kts
21-Nov-20 15:14 42.371570 -122.875870 116 1310ft 5kts
21-Nov-20 15:15 42.370972 -122.873003 5 1313ft 8kts
21-Nov-20 15:16 42.374242 -122.874517 336 1310ft 7kts
21-Nov-20 15:17 42.377779 -122.876364 339 1306ft 9kts
21-Nov-20 15:18 42.381422 -122.878272 338 1302ft 17kts
21-Nov-20 15:19 42.385827 -122.880180 66 1295ft 0kts
21-Nov-20 15:20 42.385827 -122.880180 66 1295ft 0kts
21-Nov-20 15:21 42.385801 -122.878950 156 1297ft 17kts
21-Nov-20 15:22 42.359814 -122.870327 206 2217ft 135kts
21-Nov-20 15:23 42.371239 -122.899434 3 4407ft 130kts
21-Nov-20 15:24 42.397497 -122.924857 292 6489ft 135kts
21-Nov-20 15:25 42.411773 -122.974268 291 8536ft 143kts
21-Nov-20 15:26 42.425966 -123.025477 288 10962ft 144kts
21-Nov-20 15:27 42.455376 -123.051779 358 13004ft 146kts
21-Nov-20 15:28 42.497461 -123.051647 359 14916ft 149kts
21-Nov-20 15:29 42.541292 -123.050720 359 16795ft 160kts
21-Nov-20 15:30 42.586145 -123.049626 358 19266ft 161kts
21-Nov-20 15:31 42.632635 -123.048482 358 21743ft 168kts
21-Nov-20 15:32 42.681121 -123.047288 357 24113ft 174kts
21-Nov-20 15:33 42.731818 -123.046048 357 26024ft 193kts
21-Nov-20 15:34 42.797630 -123.044470 358 26425ft 259kts
21-Nov-20 15:35 42.877422 -123.042494 358 26405ft 290kts
21-Nov-20 15:36 42.961674 -123.040354 357 26401ft 298kts
21-Nov-20 15:37 43.047041 -123.038211 357 26401ft 301kts
21-Nov-20 15:38 43.132672 -123.036081 357 26403ft 301kts
21-Nov-20 15:39 43.218529 -123.033918 357 26403ft 302kts
21-Nov-20 15:40 43.304435 -123.031749 357 26402ft 302kts
21-Nov-20 15:41 43.390123 -123.029580 357 26402ft 301kts
21-Nov-20 15:42 43.475571 -123.027410 357 26402ft 301kts
21-Nov-20 15:43 43.561532 -123.025221 357 26405ft 301kts
21-Nov-20 15:44 43.646932 -123.023042 357 26415ft 301kts
21-Nov-20 15:45 43.732405 -123.020854 357 26419ft 300kts
21-Nov-20 15:46 43.816807 -123.018687 357 26420ft 299kts
21-Nov-20 15:47 43.901664 -123.016503 357 26420ft 298kts
21-Nov-20 15:48 43.986605 -123.014311 357 26419ft 298kts
21-Nov-20 15:49 44.071685 -123.012109 357 26401ft 298kts
21-Nov-20 15:50 44.155142 -123.009943 357 26403ft 298kts
21-Nov-20 15:51 44.239166 -123.007756 357 26403ft 298kts
21-Nov-20 15:52 44.323052 -123.005566 357 26403ft 298kts
21-Nov-20 15:53 44.406595 -123.003378 357 26407ft 297kts
21-Nov-20 15:54 44.490790 -123.001168 357 26411ft 297kts
21-Nov-20 15:55 44.574759 -122.998957 357 26406ft 297kts
21-Nov-20 15:56 44.658678 -122.996739 357 26401ft 297kts
21-Nov-20 15:57 44.742671 -122.994516 357 26396ft 296kts
21-Nov-20 15:58 44.827082 -122.992274 357 26392ft 296kts
21-Nov-20 16:00 44.911144 -122.990034 357 26392ft 296kts
21-Nov-20 16:01 44.995356 -122.987745 357 26393ft 296kts
21-Nov-20 16:02 45.079235 -122.985488 355 26401ft 299kts
21-Nov-20 16:03 45.164185 -122.983246 355 26409ft 306kts
21-Nov-20 16:04 45.250150 -122.980939 355 26408ft 308kts
21-Nov-20 16:05 45.336987 -122.978591 355 26406ft 309kts
21-Nov-20 16:06 45.423907 -122.974906 356 26403ft 309kts
21-Nov-20 16:07 45.511690 -122.970870 356 26402ft 309kts
21-Nov-20 16:08 45.599335 -122.966830 356 26402ft 309kts
21-Nov-20 16:09 45.687340 -122.962756 356 26402ft 309kts
21-Nov-20 16:10 45.775237 -122.958710 356 25974ft 321kts
21-Nov-20 16:11 45.868822 -122.954321 356 24400ft 317kts
21-Nov-20 16:12 45.954668 -122.950292 356 24401ft 295kts
21-Nov-20 16:12 46.023383 -122.947078 356 24412ft 289kts
21-Nov-20 16:14 46.118282 -122.942622 356 24420ft 287kts
21-Nov-20 16:14 46.185876 -122.939439 356 24420ft 286kts
21-Nov-20 16:16 46.283861 -122.934863 357 23305ft 313kts
21-Nov-20 16:17 46.374237 -122.930557 357 21786ft 317kts
21-Nov-20 16:17 46.446899 -122.927093 357 20493ft 302kts
21-Nov-20 16:19 46.546426 -122.922338 358 18684ft 296kts
21-Nov-20 16:19 46.616738 -122.918973 358 17398ft 295kts
21-Nov-20 16:21 46.706756 -122.914633 358 15536ft 232kts
21-Nov-20 16:21 46.757881 -122.912180 358 14177ft 202kts
21-Nov-20 16:23 46.819276 -122.909212 359 13353ft 188kts
21-Nov-20 16:23 46.864693 -122.884617 24 12446ft 222kts
21-Nov-20 16:24 46.921994 -122.843312 23 10932ft 224kts
21-Nov-20 16:25 46.977238 -122.803447 22 9404ft 215kts
21-Nov-20 16:26 47.029826 -122.765415 21 7853ft 196kts
21-Nov-20 16:27 47.078273 -122.730332 21 6299ft 185kts
21-Nov-20 16:28 47.124527 -122.696749 22 4765ft 179kts
21-Nov-20 16:29 47.163804 -122.697249 281 4060ft 165kts
21-Nov-20 16:30 47.172760 -122.769557 283 3553ft 192kts
21-Nov-20 16:31 47.168100 -122.844566 205 3046ft 199kts
21-Nov-20 16:32 47.113654 -122.862175 192 2929ft 199kts
21-Nov-20 16:33 47.054339 -122.879580 191 1796ft 213kts
21-Nov-20 16:34 47.013576 -122.891526 191 999ft 102kts
21-Nov-20 16:35 46.988218 -122.898930 190 465ft 89kts
21-Nov-20 16:36 46.968637 -122.904653 191 200ft 31kts
21-Nov-20 16:37 46.967335 -122.901022 21 201ft 12kts
21-Nov-20 16:38 46.971514 -122.897953 47 200ft 15kts
21-Nov-20 16:39 46.973992 -122.897799 321 199ft 12kts
21-Nov-20 16:40 46.975540 -122.898800 281 196ft 0kts
21-Nov-20 16:41 46.975540 -122.898800 280 196ft 0kts

Navigation Log

Ident Type
Flight plan parsing failed, navigation log unavailable